Skip to main content

NOAA/GLERL Met Station at Muskegon, MI

Previous 3 Hours (2 minute increments)
See also Previous 5 Days (top of hour)
Jump down to Data
Switch to [English][Metric]
Zoom: Click and drag, Pan: shift-click and drag, Unzoom: double-click, Unzoom All






See also 1-day windrose plot


NOAA/GLERL Met Station at Muskegon, MI

Previous 3 Hours (2 minute increments)
See also Previous 5 Days (top of hour only)
Jump up to Graphs
Switch to [English][Metric]
                  Wind  Wind  Wind   Air   Dew   Rel     Sta   PAR
                   Spd   Gst   Dir  Temp    Pt   Hum    Pres uE/m2/
YYYY-MM-DD   EDT   kts   kts   deg     F     F     %   in Hg   sec
2019-10-14 15:20  11.3  14.8   293  47.3  37.4  68.2   29.42  1233
2019-10-14 15:18  10.3  12.2   292  47.7  37.2  66.7   29.42  1094
2019-10-14 15:16  12.6  14.4   291  47.3  37.1  67.5   29.42  1681
2019-10-14 15:14  13.0  15.2   290  47.1  36.2  65.5   29.42  1049
2019-10-14 15:12  12.4  14.0   299  47.1  36.5  66.2   29.42  1302
2019-10-14 15:10  11.9  13.8   294  47.1  35.6  63.8   29.42  1357
2019-10-14 15:08  13.2  15.4   294  47.1  35.8  64.4   29.42  1543
2019-10-14 15:06  13.2  16.1   300  46.9  36.5  66.6   29.42  1934
2019-10-14 15:04  12.8  14.4   305  47.1  37.2  68.0   29.42   899
2019-10-14 15:02  12.4  14.2   301  47.3  36.5  65.8   29.42  1558
2019-10-14 15:00  13.2  15.4   297  47.3  37.2  67.6   29.42  2007
2019-10-14 14:58  11.7  14.2   299  47.1  35.8  64.5   29.42  2000
2019-10-14 14:56  13.4  16.1   290  47.3  37.2  67.7   29.42  1871
2019-10-14 14:54  12.8  15.0   304  47.3  36.9  66.9   29.42  2047
2019-10-14 14:52  12.6  14.6   296  47.3  36.9  66.9   29.42  2121
2019-10-14 14:50  12.8  14.8   296  47.1  36.8  67.1   29.42  1830
2019-10-14 14:48  14.2  16.3   297  47.1  36.8  67.0   29.42  1621
2019-10-14 14:46  14.2  16.7   292  47.1  37.1  67.8   29.42  1160
2019-10-14 14:44  12.8  15.0   300  47.1  37.7  69.5   29.42   969
2019-10-14 14:42  12.1  15.6   291  47.1  37.2  68.0   29.42  1162
2019-10-14 14:40  13.4  15.2   290  47.1  37.2  68.2   29.42  1594
2019-10-14 14:38  14.0  15.4   297  46.9  37.4  69.2   29.42  1314
2019-10-14 14:36  12.8  14.8   288  47.1  37.8  69.7   29.42   656
2019-10-14 14:34  13.0  15.9   297  47.3  37.9  69.5   29.42  1409
2019-10-14 14:32  13.6  15.0   288  47.1  37.5  68.8   29.42  2008
2019-10-14 14:30  10.5  12.4   289  46.8  36.5  67.1   29.42  2058
2019-10-14 14:28  13.4  14.8   292  46.9  35.6  64.3   29.42  1221
2019-10-14 14:26  14.2  15.7   290  46.8  36.9  68.2   29.42  1551
2019-10-14 14:24  14.0  16.7   294  46.6  36.3  67.2   29.42  1338
2019-10-14 14:22  13.4  16.3   294  46.8  36.5  67.1   29.42  1535
2019-10-14 14:20  12.8  15.0   297  46.9  37.2  68.6   29.42   790
2019-10-14 14:18  13.8  15.0   298  47.3  37.4  68.3   29.42  1291
2019-10-14 14:16  13.2  15.2   277  47.1  37.1  67.7   29.42  1500
2019-10-14 14:14  11.5  14.4   282  46.9  36.0  65.3   29.42  1817
2019-10-14 14:12  12.6  15.2   285  46.9  35.7  64.7   29.42  1385
2019-10-14 14:10  13.0  15.4   293  47.1  36.6  66.4   29.42   824
2019-10-14 14:08  13.0  15.2   298  47.1  36.4  66.1   29.42  2019
2019-10-14 14:06  13.0  15.2   296  46.9  36.8  67.4   29.42  1727
2019-10-14 14:04  11.7  13.0   288  46.6  36.2  66.9   29.42  1794
2019-10-14 14:02  13.2  14.2   284  46.8  36.0  65.8   29.42   778
2019-10-14 14:00  14.0  15.4   288  47.1  36.4  66.1   29.42  1794
2019-10-14 13:58  11.7  14.8   293  46.9  36.8  67.5   29.42  1870
2019-10-14 13:56  12.2  14.4   292  47.1  36.8  67.0   29.42  1466
2019-10-14 13:54  12.2  15.2   296  46.9  36.3  66.1   29.42  1984
2019-10-14 13:52  11.5  13.6   296  46.9  36.5  66.6   29.42  1475
2019-10-14 13:50  11.3  13.8   293  46.9  36.7  67.2   29.42  1695
2019-10-14 13:48  12.8  14.6   291  46.9  36.5  66.6   29.42  1633
2019-10-14 13:46  12.1  14.0   283  46.9  36.6  67.0   29.42  1254
2019-10-14 13:44  13.0  14.4   289  46.8  36.7  67.7   29.42  1668
2019-10-14 13:42  12.8  14.4   288  46.8  36.3  66.6   29.42  1783
2019-10-14 13:40  13.0  15.7   289  46.8  36.3  66.7   29.42  1599
2019-10-14 13:38  13.8  15.2   289  46.8  36.3  66.6   29.42  1823
2019-10-14 13:36  12.8  14.6   298  46.8  37.1  68.8   29.42  1763
2019-10-14 13:34  14.4  15.9   296  46.8  36.7  67.8   29.42  1317
2019-10-14 13:32  12.2  14.4   288  46.8  36.8  67.9   29.42  2012
2019-10-14 13:30  14.0  14.8   293  46.8  38.0  71.2   29.42  1100
2019-10-14 13:28  12.4  14.4   286  46.6  37.4  70.0   29.42  1483
2019-10-14 13:26  12.6  14.6   285  46.6  36.9  68.7   29.42  1173
2019-10-14 13:24  12.1  14.2   294  46.8  37.1  68.8   29.42  1222
2019-10-14 13:22  13.0  15.0   295  46.4  37.3  70.2   29.42  1777
2019-10-14 13:20  11.5  12.4   285  46.2  36.8  69.5   29.42  1146
2019-10-14 13:18  12.6  14.2   289  46.6  37.8  71.1   29.42  1230
2019-10-14 13:16  11.3  14.0   298  46.4  37.7  71.5   29.42   991
2019-10-14 13:14  10.7  12.2   304  46.4  36.7  68.6   29.42   759
2019-10-14 13:12  13.0  15.0   292  46.4  37.5  70.7   29.42   825
2019-10-14 13:10  12.1  14.4   296  46.4  37.7  71.4   29.42  1126
2019-10-14 13:08  11.1  13.6   291  46.4  37.7  71.4   29.42   944
2019-10-14 13:06  11.1  13.0   287  46.4  37.3  70.3   29.42   833
2019-10-14 13:04  11.1  12.8   295  46.4  37.9  71.9   29.42   900
2019-10-14 13:02  11.7  12.8   303  46.4  37.9  71.9   29.42   978
2019-10-14 13:00  13.6  15.2   297  46.4  37.8  71.7   29.42  1111
2019-10-14 12:58  11.9  15.0   284  46.2  38.3  73.6   29.42  1091
2019-10-14 12:56  10.5  12.6   292  46.0  37.2  70.9   29.42  1084
2019-10-14 12:54  12.2  14.6   296  46.2  37.2  70.4   29.42  1104
2019-10-14 12:52  10.5  11.9   300  46.4  37.3  70.4   29.42  1107
2019-10-14 12:50  11.1  13.0   301  46.2  37.5  71.3   29.42  1190
2019-10-14 12:48  10.3  12.2   294  46.2  37.0  70.0   29.41  1135
2019-10-14 12:46   9.9  12.1   299  46.2  36.5  68.6   29.42  1020
2019-10-14 12:44  12.2  14.8   292  46.2  36.8  69.3   29.42   972
2019-10-14 12:42  11.7  13.6   297  46.4  37.7  71.4   29.42  1086
2019-10-14 12:40   9.7  12.2   292  46.4  38.5  73.8   29.42  1072
2019-10-14 12:38  10.7  12.8   285  46.2  38.2  73.2   29.42  1654
2019-10-14 12:36  11.3  12.6   284  46.2  37.6  71.7   29.42  1510
2019-10-14 12:34  11.1  12.1   285  46.2  37.5  71.3   29.42  1204
2019-10-14 12:32  10.7  12.4   296  46.2  37.6  71.6   29.42  1684
2019-10-14 12:30   9.7  13.2   301  46.2  37.6  71.5   29.42  1147
2019-10-14 12:28   9.9  12.4   299  46.2  37.0  69.8   29.42  1270
2019-10-14 12:26  10.9  12.1   300  46.2  37.6  71.5   29.42   868
2019-10-14 12:24  10.9  13.6   305  46.2  36.4  68.3   29.42  1098
2019-10-14 12:22  11.7  13.6   303  46.4  37.7  71.4   29.42  1413
2019-10-14 12:20  10.7  12.4   294  46.0  37.2  71.0   29.42  1419